sensor_id;sensor_type;location;lat;lon;timestamp;P1;durP1;ratioP1;P2;durP2;ratioP2
870;SDS011;422;51.280;7.236;2023-07-31T00:00:42;10.30;;;6.97;;
870;SDS011;422;51.280;7.236;2023-07-31T00:03:11;8.37;;;6.33;;
870;SDS011;422;51.280;7.236;2023-07-31T00:05:40;11.30;;;6.00;;
870;SDS011;422;51.280;7.236;2023-07-31T00:08:07;9.90;;;5.80;;
870;SDS011;422;51.280;7.236;2023-07-31T00:10:34;12.77;;;6.50;;
870;SDS011;422;51.280;7.236;2023-07-31T00:13:01;8.83;;;5.80;;
870;SDS011;422;51.280;7.236;2023-07-31T00:15:28;6.30;;;5.03;;
870;SDS011;422;51.280;7.236;2023-07-31T00:17:56;9.73;;;5.20;;
870;SDS011;422;51.280;7.236;2023-07-31T00:20:23;11.60;;;5.87;;
870;SDS011;422;51.280;7.236;2023-07-31T00:22:52;8.90;;;6.93;;
870;SDS011;422;51.280;7.236;2023-07-31T00:25:20;10.20;;;6.50;;
870;SDS011;422;51.280;7.236;2023-07-31T00:27:47;11.00;;;5.70;;
870;SDS011;422;51.280;7.236;2023-07-31T00:30:14;10.80;;;6.13;;
870;SDS011;422;51.280;7.236;2023-07-31T00:32:42;9.67;;;6.20;;
870;SDS011;422;51.280;7.236;2023-07-31T00:35:09;8.93;;;5.43;;
870;SDS011;422;51.280;7.236;2023-07-31T00:37:36;10.87;;;6.23;;
870;SDS011;422;51.280;7.236;2023-07-31T00:40:05;10.20;;;6.73;;
870;SDS011;422;51.280;7.236;2023-07-31T00:42:34;14.37;;;6.80;;
870;SDS011;422;51.280;7.236;2023-07-31T00:45:01;10.67;;;6.97;;
870;SDS011;422;51.280;7.236;2023-07-31T00:47:28;9.33;;;6.27;;
870;SDS011;422;51.280;7.236;2023-07-31T00:49:56;12.23;;;6.83;;
870;SDS011;422;51.280;7.236;2023-07-31T00:52:23;11.47;;;6.67;;
870;SDS011;422;51.280;7.236;2023-07-31T00:54:50;11.30;;;6.57;;
870;SDS011;422;51.280;7.236;2023-07-31T00:57:19;10.03;;;5.30;;
870;SDS011;422;51.280;7.236;2023-07-31T00:59:46;11.80;;;6.70;;
870;SDS011;422;51.280;7.236;2023-07-31T01:02:13;13.17;;;7.00;;
870;SDS011;422;51.280;7.236;2023-07-31T01:04:41;11.20;;;6.63;;
870;SDS011;422;51.280;7.236;2023-07-31T01:07:11;12.27;;;6.60;;
870;SDS011;422;51.280;7.236;2023-07-31T01:09:42;9.30;;;6.43;;
870;SDS011;422;51.280;7.236;2023-07-31T01:12:15;8.87;;;5.50;;
870;SDS011;422;51.280;7.236;2023-07-31T01:14:52;9.60;;;5.57;;
870;SDS011;422;51.280;7.236;2023-07-31T01:17:29;9.20;;;6.20;;
870;SDS011;422;51.280;7.236;2023-07-31T01:19:58;16.30;;;7.07;;
870;SDS011;422;51.280;7.236;2023-07-31T01:22:31;8.57;;;6.10;;
870;SDS011;422;51.280;7.236;2023-07-31T01:25:12;12.13;;;6.00;;
870;SDS011;422;51.280;7.236;2023-07-31T01:27:53;11.43;;;6.40;;
870;SDS011;422;51.280;7.236;2023-07-31T01:30:26;10.40;;;6.20;;
870;SDS011;422;51.280;7.236;2023-07-31T01:33:00;9.30;;;5.03;;
870;SDS011;422;51.280;7.236;2023-07-31T01:35:32;12.37;;;6.07;;
870;SDS011;422;51.280;7.236;2023-07-31T01:37:59;8.97;;;6.10;;
870;SDS011;422;51.280;7.236;2023-07-31T01:40:26;10.67;;;5.93;;
870;SDS011;422;51.280;7.236;2023-07-31T01:42:55;8.07;;;5.27;;
870;SDS011;422;51.280;7.236;2023-07-31T01:45:22;11.40;;;5.73;;
870;SDS011;422;51.280;7.236;2023-07-31T01:47:49;10.93;;;5.20;;
870;SDS011;422;51.280;7.236;2023-07-31T01:50:16;7.40;;;5.40;;
870;SDS011;422;51.280;7.236;2023-07-31T01:52:44;10.10;;;6.00;;
870;SDS011;422;51.280;7.236;2023-07-31T01:55:11;8.80;;;4.97;;
870;SDS011;422;51.280;7.236;2023-07-31T01:57:38;10.37;;;5.47;;
870;SDS011;422;51.280;7.236;2023-07-31T02:00:08;11.47;;;6.00;;
870;SDS011;422;51.280;7.236;2023-07-31T02:02:36;11.60;;;6.80;;
870;SDS011;422;51.280;7.236;2023-07-31T02:05:03;10.60;;;6.23;;
870;SDS011;422;51.280;7.236;2023-07-31T02:07:30;11.03;;;5.80;;
870;SDS011;422;51.280;7.236;2023-07-31T02:09:58;10.03;;;6.63;;
870;SDS011;422;51.280;7.236;2023-07-31T02:12:25;9.13;;;5.87;;
870;SDS011;422;51.280;7.236;2023-07-31T02:14:52;10.23;;;6.40;;
870;SDS011;422;51.280;7.236;2023-07-31T02:17:21;12.27;;;5.73;;
870;SDS011;422;51.280;7.236;2023-07-31T02:19:48;10.00;;;5.90;;
870;SDS011;422;51.280;7.236;2023-07-31T02:22:15;13.00;;;5.90;;
870;SDS011;422;51.280;7.236;2023-07-31T02:24:43;14.87;;;5.97;;
870;SDS011;422;51.280;7.236;2023-07-31T02:27:10;10.97;;;6.67;;
870;SDS011;422;51.280;7.236;2023-07-31T02:29:37;10.07;;;5.90;;
870;SDS011;422;51.280;7.236;2023-07-31T02:32:04;8.40;;;5.70;;
870;SDS011;422;51.280;7.236;2023-07-31T02:34:34;9.20;;;6.13;;
870;SDS011;422;51.280;7.236;2023-07-31T02:37:01;8.40;;;5.90;;
870;SDS011;422;51.280;7.236;2023-07-31T02:39:28;8.80;;;5.53;;
870;SDS011;422;51.280;7.236;2023-07-31T02:41:55;11.70;;;5.80;;
870;SDS011;422;51.280;7.236;2023-07-31T02:44:22;13.37;;;6.67;;
870;SDS011;422;51.280;7.236;2023-07-31T02:46:49;11.33;;;6.40;;
870;SDS011;422;51.280;7.236;2023-07-31T02:49:16;10.70;;;6.10;;
870;SDS011;422;51.280;7.236;2023-07-31T02:51:45;12.97;;;6.33;;
870;SDS011;422;51.280;7.236;2023-07-31T02:54:12;12.70;;;6.63;;
870;SDS011;422;51.280;7.236;2023-07-31T02:56:39;9.90;;;5.77;;
870;SDS011;422;51.280;7.236;2023-07-31T02:59:06;12.87;;;6.00;;
870;SDS011;422;51.280;7.236;2023-07-31T03:01:33;11.20;;;6.23;;
870;SDS011;422;51.280;7.236;2023-07-31T03:04:00;9.93;;;5.80;;
870;SDS011;422;51.280;7.236;2023-07-31T03:06:27;12.93;;;6.37;;
870;SDS011;422;51.280;7.236;2023-07-31T03:08:56;11.60;;;5.93;;
870;SDS011;422;51.280;7.236;2023-07-31T03:11:23;10.20;;;6.20;;
870;SDS011;422;51.280;7.236;2023-07-31T03:13:50;8.30;;;5.77;;
870;SDS011;422;51.280;7.236;2023-07-31T03:16:17;12.53;;;5.60;;
870;SDS011;422;51.280;7.236;2023-07-31T03:18:45;9.10;;;6.10;;
870;SDS011;422;51.280;7.236;2023-07-31T03:21:12;8.70;;;5.90;;
870;SDS011;422;51.280;7.236;2023-07-31T03:23:39;9.20;;;5.20;;
870;SDS011;422;51.280;7.236;2023-07-31T03:26:10;11.53;;;6.10;;
870;SDS011;422;51.280;7.236;2023-07-31T03:28:37;11.80;;;6.23;;
870;SDS011;422;51.280;7.236;2023-07-31T03:31:04;8.63;;;5.77;;
870;SDS011;422;51.280;7.236;2023-07-31T03:33:33;12.57;;;6.87;;
870;SDS011;422;51.280;7.236;2023-07-31T03:36:00;11.67;;;6.30;;
870;SDS011;422;51.280;7.236;2023-07-31T03:38:28;7.23;;;5.50;;
870;SDS011;422;51.280;7.236;2023-07-31T03:40:55;10.63;;;6.33;;
870;SDS011;422;51.280;7.236;2023-07-31T03:43:25;11.13;;;5.50;;
870;SDS011;422;51.280;7.236;2023-07-31T03:45:52;12.93;;;6.23;;
870;SDS011;422;51.280;7.236;2023-07-31T03:48:19;12.17;;;6.20;;
870;SDS011;422;51.280;7.236;2023-07-31T03:50:46;9.77;;;6.10;;
870;SDS011;422;51.280;7.236;2023-07-31T03:53:14;11.33;;;5.80;;
870;SDS011;422;51.280;7.236;2023-07-31T03:55:41;12.17;;;6.20;;
870;SDS011;422;51.280;7.236;2023-07-31T03:58:08;19.17;;;7.03;;
870;SDS011;422;51.280;7.236;2023-07-31T04:00:36;15.27;;;5.93;;
870;SDS011;422;51.280;7.236;2023-07-31T04:03:04;16.53;;;6.67;;
870;SDS011;422;51.280;7.236;2023-07-31T04:05:31;13.00;;;5.63;;
870;SDS011;422;51.280;7.236;2023-07-31T04:07:58;12.20;;;5.30;;
870;SDS011;422;51.280;7.236;2023-07-31T04:10:26;11.50;;;6.07;;
870;SDS011;422;51.280;7.236;2023-07-31T04:12:53;10.93;;;6.00;;
870;SDS011;422;51.280;7.236;2023-07-31T04:15:20;12.73;;;5.50;;
870;SDS011;422;51.280;7.236;2023-07-31T04:17:49;10.53;;;6.00;;
870;SDS011;422;51.280;7.236;2023-07-31T04:20:16;10.90;;;6.13;;
870;SDS011;422;51.280;7.236;2023-07-31T04:22:43;7.40;;;5.97;;
870;SDS011;422;51.280;7.236;2023-07-31T04:25:11;8.90;;;5.80;;
870;SDS011;422;51.280;7.236;2023-07-31T04:27:40;8.90;;;5.43;;
870;SDS011;422;51.280;7.236;2023-07-31T04:30:07;10.20;;;5.93;;
870;SDS011;422;51.280;7.236;2023-07-31T04:32:35;11.77;;;5.53;;
870;SDS011;422;51.280;7.236;2023-07-31T04:35:04;11.07;;;6.03;;
870;SDS011;422;51.280;7.236;2023-07-31T04:37:31;12.23;;;5.60;;
870;SDS011;422;51.280;7.236;2023-07-31T04:39:58;13.27;;;5.80;;
870;SDS011;422;51.280;7.236;2023-07-31T04:42:26;9.10;;;5.77;;
870;SDS011;422;51.280;7.236;2023-07-31T04:44:53;8.60;;;6.00;;
870;SDS011;422;51.280;7.236;2023-07-31T04:47:20;9.80;;;6.10;;
870;SDS011;422;51.280;7.236;2023-07-31T04:49:47;10.47;;;5.30;;
870;SDS011;422;51.280;7.236;2023-07-31T04:52:15;9.50;;;6.63;;
870;SDS011;422;51.280;7.236;2023-07-31T04:54:43;13.97;;;6.20;;
870;SDS011;422;51.280;7.236;2023-07-31T04:57:10;10.10;;;6.20;;
870;SDS011;422;51.280;7.236;2023-07-31T04:59:37;10.57;;;6.47;;
870;SDS011;422;51.280;7.236;2023-07-31T05:02:04;10.07;;;6.80;;
870;SDS011;422;51.280;7.236;2023-07-31T05:04:32;9.83;;;6.70;;
870;SDS011;422;51.280;7.236;2023-07-31T05:06:59;11.37;;;6.40;;
870;SDS011;422;51.280;7.236;2023-07-31T05:09:27;16.50;;;7.30;;
870;SDS011;422;51.280;7.236;2023-07-31T05:11:54;10.00;;;7.10;;
870;SDS011;422;51.280;7.236;2023-07-31T05:14:23;10.97;;;6.50;;
870;SDS011;422;51.280;7.236;2023-07-31T05:16:50;12.90;;;7.53;;
870;SDS011;422;51.280;7.236;2023-07-31T05:19:17;11.90;;;7.13;;
870;SDS011;422;51.280;7.236;2023-07-31T05:21:44;11.13;;;6.60;;
870;SDS011;422;51.280;7.236;2023-07-31T05:24:11;8.13;;;5.97;;
870;SDS011;422;51.280;7.236;2023-07-31T05:26:40;13.70;;;6.30;;
870;SDS011;422;51.280;7.236;2023-07-31T05:29:07;10.50;;;6.90;;
870;SDS011;422;51.280;7.236;2023-07-31T05:31:34;9.47;;;6.33;;
870;SDS011;422;51.280;7.236;2023-07-31T05:34:03;9.97;;;6.33;;
870;SDS011;422;51.280;7.236;2023-07-31T05:36:30;15.30;;;6.43;;
870;SDS011;422;51.280;7.236;2023-07-31T05:38:58;9.03;;;6.70;;
870;SDS011;422;51.280;7.236;2023-07-31T05:41:25;11.07;;;6.93;;
870;SDS011;422;51.280;7.236;2023-07-31T05:43:53;11.07;;;7.83;;
870;SDS011;422;51.280;7.236;2023-07-31T05:46:21;11.33;;;7.47;;
870;SDS011;422;51.280;7.236;2023-07-31T05:48:48;9.57;;;6.80;;
870;SDS011;422;51.280;7.236;2023-07-31T05:51:15;10.60;;;7.07;;
870;SDS011;422;51.280;7.236;2023-07-31T05:53:42;10.17;;;7.37;;
870;SDS011;422;51.280;7.236;2023-07-31T05:56:09;8.73;;;5.80;;
870;SDS011;422;51.280;7.236;2023-07-31T05:58:36;9.00;;;7.00;;
870;SDS011;422;51.280;7.236;2023-07-31T06:01:05;11.77;;;6.60;;
870;SDS011;422;51.280;7.236;2023-07-31T06:03:32;11.90;;;6.93;;
870;SDS011;422;51.280;7.236;2023-07-31T06:05:59;10.77;;;6.70;;
870;SDS011;422;51.280;7.236;2023-07-31T06:08:26;9.67;;;7.20;;
870;SDS011;422;51.280;7.236;2023-07-31T06:10:53;10.10;;;6.80;;
870;SDS011;422;51.280;7.236;2023-07-31T06:13:21;11.00;;;6.40;;
870;SDS011;422;51.280;7.236;2023-07-31T06:15:48;10.43;;;6.60;;
870;SDS011;422;51.280;7.236;2023-07-31T06:18:17;8.87;;;6.00;;
870;SDS011;422;51.280;7.236;2023-07-31T06:20:44;9.17;;;6.47;;
870;SDS011;422;51.280;7.236;2023-07-31T06:23:12;9.93;;;7.20;;
870;SDS011;422;51.280;7.236;2023-07-31T06:25:39;8.10;;;6.20;;
870;SDS011;422;51.280;7.236;2023-07-31T06:28:07;9.80;;;6.10;;
870;SDS011;422;51.280;7.236;2023-07-31T06:30:34;7.93;;;6.17;;
870;SDS011;422;51.280;7.236;2023-07-31T06:33:01;8.30;;;6.40;;
870;SDS011;422;51.280;7.236;2023-07-31T06:35:30;8.20;;;5.87;;
870;SDS011;422;51.280;7.236;2023-07-31T06:37:57;8.77;;;6.23;;
870;SDS011;422;51.280;7.236;2023-07-31T06:40:24;10.73;;;6.20;;
870;SDS011;422;51.280;7.236;2023-07-31T06:42:52;7.30;;;5.43;;
870;SDS011;422;51.280;7.236;2023-07-31T06:45:19;8.80;;;5.93;;
870;SDS011;422;51.280;7.236;2023-07-31T06:47:47;8.80;;;7.50;;
870;SDS011;422;51.280;7.236;2023-07-31T06:50:17;10.13;;;6.60;;
870;SDS011;422;51.280;7.236;2023-07-31T06:52:45;7.07;;;5.43;;
870;SDS011;422;51.280;7.236;2023-07-31T06:55:16;10.70;;;6.63;;
870;SDS011;422;51.280;7.236;2023-07-31T06:57:44;8.97;;;6.33;;
870;SDS011;422;51.280;7.236;2023-07-31T07:00:12;8.43;;;6.27;;
870;SDS011;422;51.280;7.236;2023-07-31T07:02:39;7.27;;;6.13;;
870;SDS011;422;51.280;7.236;2023-07-31T07:05:07;7.57;;;6.33;;
870;SDS011;422;51.280;7.236;2023-07-31T07:07:35;13.77;;;7.10;;
870;SDS011;422;51.280;7.236;2023-07-31T07:10:04;8.67;;;6.27;;
870;SDS011;422;51.280;7.236;2023-07-31T07:12:32;9.73;;;6.27;;
870;SDS011;422;51.280;7.236;2023-07-31T07:14:59;8.73;;;5.83;;
870;SDS011;422;51.280;7.236;2023-07-31T07:17:28;9.93;;;6.90;;
870;SDS011;422;51.280;7.236;2023-07-31T07:19:56;7.90;;;5.60;;
870;SDS011;422;51.280;7.236;2023-07-31T07:22:23;9.37;;;6.43;;
870;SDS011;422;51.280;7.236;2023-07-31T07:24:52;9.67;;;6.60;;
870;SDS011;422;51.280;7.236;2023-07-31T07:27:20;12.63;;;7.00;;
870;SDS011;422;51.280;7.236;2023-07-31T07:29:49;8.50;;;6.20;;
870;SDS011;422;51.280;7.236;2023-07-31T07:32:16;9.73;;;6.50;;
870;SDS011;422;51.280;7.236;2023-07-31T07:34:44;7.97;;;6.60;;
870;SDS011;422;51.280;7.236;2023-07-31T07:37:11;11.53;;;6.00;;
870;SDS011;422;51.280;7.236;2023-07-31T07:39:38;8.90;;;6.47;;
870;SDS011;422;51.280;7.236;2023-07-31T07:42:05;15.20;;;7.23;;
870;SDS011;422;51.280;7.236;2023-07-31T07:44:34;8.83;;;6.10;;
870;SDS011;422;51.280;7.236;2023-07-31T07:47:01;7.83;;;5.43;;
870;SDS011;422;51.280;7.236;2023-07-31T07:49:31;9.13;;;6.70;;
870;SDS011;422;51.280;7.236;2023-07-31T07:51:59;9.40;;;6.33;;
870;SDS011;422;51.280;7.236;2023-07-31T07:54:26;7.30;;;5.97;;
870;SDS011;422;51.280;7.236;2023-07-31T07:56:53;10.03;;;6.37;;
870;SDS011;422;51.280;7.236;2023-07-31T07:59:21;7.80;;;6.10;;
870;SDS011;422;51.280;7.236;2023-07-31T08:01:49;8.53;;;6.10;;
870;SDS011;422;51.280;7.236;2023-07-31T08:04:17;9.93;;;6.40;;
870;SDS011;422;51.280;7.236;2023-07-31T08:06:44;11.60;;;6.33;;
870;SDS011;422;51.280;7.236;2023-07-31T08:09:11;11.57;;;6.43;;
870;SDS011;422;51.280;7.236;2023-07-31T08:11:38;6.50;;;5.10;;
870;SDS011;422;51.280;7.236;2023-07-31T08:14:05;8.03;;;6.00;;
870;SDS011;422;51.280;7.236;2023-07-31T08:16:33;6.37;;;5.47;;
870;SDS011;422;51.280;7.236;2023-07-31T08:19:01;6.97;;;5.30;;
870;SDS011;422;51.280;7.236;2023-07-31T08:21:28;6.13;;;4.90;;
870;SDS011;422;51.280;7.236;2023-07-31T08:23:56;8.30;;;5.57;;
870;SDS011;422;51.280;7.236;2023-07-31T08:26:23;5.13;;;4.07;;
870;SDS011;422;51.280;7.236;2023-07-31T08:28:50;7.17;;;5.13;;
870;SDS011;422;51.280;7.236;2023-07-31T08:31:17;7.37;;;5.10;;
870;SDS011;422;51.280;7.236;2023-07-31T08:33:45;8.23;;;5.50;;
870;SDS011;422;51.280;7.236;2023-07-31T08:36:14;8.73;;;5.27;;
870;SDS011;422;51.280;7.236;2023-07-31T08:38:41;5.30;;;4.67;;
870;SDS011;422;51.280;7.236;2023-07-31T08:41:08;5.17;;;4.40;;
870;SDS011;422;51.280;7.236;2023-07-31T08:43:35;6.63;;;4.67;;
870;SDS011;422;51.280;7.236;2023-07-31T08:46:04;6.20;;;4.23;;
870;SDS011;422;51.280;7.236;2023-07-31T08:48:32;6.13;;;4.50;;
870;SDS011;422;51.280;7.236;2023-07-31T08:51:00;5.90;;;4.67;;
870;SDS011;422;51.280;7.236;2023-07-31T08:53:29;8.20;;;5.10;;
870;SDS011;422;51.280;7.236;2023-07-31T08:55:56;6.63;;;5.13;;
870;SDS011;422;51.280;7.236;2023-07-31T08:58:26;6.13;;;4.47;;
870;SDS011;422;51.280;7.236;2023-07-31T09:00:57;6.13;;;4.97;;
870;SDS011;422;51.280;7.236;2023-07-31T09:03:27;5.57;;;4.50;;
870;SDS011;422;51.280;7.236;2023-07-31T09:05:56;8.80;;;4.67;;
870;SDS011;422;51.280;7.236;2023-07-31T09:08:24;8.30;;;5.37;;
870;SDS011;422;51.280;7.236;2023-07-31T09:10:58;8.30;;;5.80;;
870;SDS011;422;51.280;7.236;2023-07-31T09:13:27;6.20;;;4.93;;
870;SDS011;422;51.280;7.236;2023-07-31T09:15:55;5.63;;;4.07;;
870;SDS011;422;51.280;7.236;2023-07-31T09:18:23;5.90;;;4.90;;
870;SDS011;422;51.280;7.236;2023-07-31T09:21:00;7.40;;;4.50;;
870;SDS011;422;51.280;7.236;2023-07-31T09:23:40;5.73;;;4.30;;
870;SDS011;422;51.280;7.236;2023-07-31T09:26:09;7.30;;;4.67;;
870;SDS011;422;51.280;7.236;2023-07-31T09:28:37;8.70;;;4.97;;
870;SDS011;422;51.280;7.236;2023-07-31T09:31:04;6.90;;;4.67;;
870;SDS011;422;51.280;7.236;2023-07-31T09:33:31;5.40;;;3.77;;
870;SDS011;422;51.280;7.236;2023-07-31T09:36:00;4.67;;;3.97;;
870;SDS011;422;51.280;7.236;2023-07-31T09:38:27;5.33;;;4.43;;
870;SDS011;422;51.280;7.236;2023-07-31T09:40:54;6.70;;;4.67;;
870;SDS011;422;51.280;7.236;2023-07-31T09:43:26;6.93;;;4.50;;
870;SDS011;422;51.280;7.236;2023-07-31T09:45:54;6.20;;;4.30;;
870;SDS011;422;51.280;7.236;2023-07-31T09:48:23;4.80;;;3.87;;
870;SDS011;422;51.280;7.236;2023-07-31T09:50:53;7.03;;;4.10;;
870;SDS011;422;51.280;7.236;2023-07-31T09:53:22;4.70;;;3.80;;
870;SDS011;422;51.280;7.236;2023-07-31T09:55:55;4.07;;;3.00;;
870;SDS011;422;51.280;7.236;2023-07-31T09:58:26;4.03;;;3.00;;
870;SDS011;422;51.280;7.236;2023-07-31T10:00:56;4.60;;;3.27;;
870;SDS011;422;51.280;7.236;2023-07-31T10:03:25;6.00;;;3.63;;
870;SDS011;422;51.280;7.236;2023-07-31T10:05:53;3.87;;;2.70;;
870;SDS011;422;51.280;7.236;2023-07-31T10:08:27;3.93;;;2.70;;
870;SDS011;422;51.280;7.236;2023-07-31T10:10:57;3.53;;;2.80;;
870;SDS011;422;51.280;7.236;2023-07-31T10:13:27;3.60;;;2.87;;
870;SDS011;422;51.280;7.236;2023-07-31T10:15:56;4.53;;;3.23;;
870;SDS011;422;51.280;7.236;2023-07-31T10:18:26;4.30;;;3.20;;
870;SDS011;422;51.280;7.236;2023-07-31T10:20:54;4.40;;;3.13;;
870;SDS011;422;51.280;7.236;2023-07-31T10:23:22;4.13;;;3.23;;
870;SDS011;422;51.280;7.236;2023-07-31T10:25:51;4.13;;;2.60;;
870;SDS011;422;51.280;7.236;2023-07-31T10:28:20;4.33;;;3.33;;
870;SDS011;422;51.280;7.236;2023-07-31T10:30:49;5.67;;;3.07;;
870;SDS011;422;51.280;7.236;2023-07-31T10:33:18;4.60;;;3.63;;
870;SDS011;422;51.280;7.236;2023-07-31T10:35:46;3.80;;;3.40;;
870;SDS011;422;51.280;7.236;2023-07-31T10:38:14;4.83;;;2.83;;
870;SDS011;422;51.280;7.236;2023-07-31T10:40:42;4.93;;;3.27;;
870;SDS011;422;51.280;7.236;2023-07-31T10:43:10;5.73;;;3.43;;
870;SDS011;422;51.280;7.236;2023-07-31T10:45:53;3.40;;;2.60;;
870;SDS011;422;51.280;7.236;2023-07-31T10:48:20;4.47;;;3.90;;
870;SDS011;422;51.280;7.236;2023-07-31T10:50:49;3.83;;;3.03;;
870;SDS011;422;51.280;7.236;2023-07-31T10:53:23;3.77;;;3.30;;
870;SDS011;422;51.280;7.236;2023-07-31T10:55:51;6.03;;;4.97;;
870;SDS011;422;51.280;7.236;2023-07-31T10:58:19;5.63;;;4.50;;
870;SDS011;422;51.280;7.236;2023-07-31T11:00:47;7.07;;;4.60;;
870;SDS011;422;51.280;7.236;2023-07-31T11:03:16;6.20;;;4.27;;
870;SDS011;422;51.280;7.236;2023-07-31T11:05:47;6.53;;;4.47;;
870;SDS011;422;51.280;7.236;2023-07-31T11:08:15;7.10;;;5.17;;
870;SDS011;422;51.280;7.236;2023-07-31T11:10:44;5.80;;;5.30;;
870;SDS011;422;51.280;7.236;2023-07-31T11:13:12;7.93;;;5.10;;
870;SDS011;422;51.280;7.236;2023-07-31T11:15:40;6.80;;;4.77;;
870;SDS011;422;51.280;7.236;2023-07-31T11:18:07;8.60;;;5.93;;
870;SDS011;422;51.280;7.236;2023-07-31T11:20:37;8.87;;;4.90;;
870;SDS011;422;51.280;7.236;2023-07-31T11:23:06;8.10;;;5.40;;
870;SDS011;422;51.280;7.236;2023-07-31T11:25:35;6.83;;;4.47;;
870;SDS011;422;51.280;7.236;2023-07-31T11:28:04;5.20;;;4.70;;
870;SDS011;422;51.280;7.236;2023-07-31T11:30:32;5.70;;;5.10;;
870;SDS011;422;51.280;7.236;2023-07-31T11:33:01;7.83;;;5.20;;
870;SDS011;422;51.280;7.236;2023-07-31T11:35:30;6.13;;;5.03;;
870;SDS011;422;51.280;7.236;2023-07-31T11:37:59;9.03;;;4.53;;
870;SDS011;422;51.280;7.236;2023-07-31T11:40:26;5.23;;;4.33;;
870;SDS011;422;51.280;7.236;2023-07-31T11:42:56;5.70;;;4.80;;
870;SDS011;422;51.280;7.236;2023-07-31T11:45:26;7.07;;;4.40;;
870;SDS011;422;51.280;7.236;2023-07-31T11:47:54;5.60;;;4.40;;
870;SDS011;422;51.280;7.236;2023-07-31T11:50:22;6.73;;;4.90;;
870;SDS011;422;51.280;7.236;2023-07-31T11:52:52;7.03;;;4.63;;
870;SDS011;422;51.280;7.236;2023-07-31T11:55:23;5.57;;;4.03;;
870;SDS011;422;51.280;7.236;2023-07-31T11:57:52;4.60;;;4.07;;
870;SDS011;422;51.280;7.236;2023-07-31T12:00:23;4.70;;;3.80;;
870;SDS011;422;51.280;7.236;2023-07-31T12:02:52;5.40;;;4.13;;
870;SDS011;422;51.280;7.236;2023-07-31T12:05:20;5.03;;;4.40;;
870;SDS011;422;51.280;7.236;2023-07-31T12:07:49;5.50;;;3.80;;
870;SDS011;422;51.280;7.236;2023-07-31T12:10:29;5.60;;;3.50;;
870;SDS011;422;51.280;7.236;2023-07-31T12:12:58;5.60;;;3.43;;
870;SDS011;422;51.280;7.236;2023-07-31T12:15:34;4.90;;;3.33;;
870;SDS011;422;51.280;7.236;2023-07-31T12:18:07;4.00;;;3.30;;
870;SDS011;422;51.280;7.236;2023-07-31T12:20:39;5.27;;;3.63;;
870;SDS011;422;51.280;7.236;2023-07-31T12:23:12;4.10;;;3.20;;
870;SDS011;422;51.280;7.236;2023-07-31T12:25:42;10.23;;;4.13;;
870;SDS011;422;51.280;7.236;2023-07-31T12:28:09;6.10;;;3.97;;
870;SDS011;422;51.280;7.236;2023-07-31T12:30:38;5.27;;;3.53;;
870;SDS011;422;51.280;7.236;2023-07-31T12:33:07;4.60;;;3.43;;
870;SDS011;422;51.280;7.236;2023-07-31T12:35:41;5.70;;;3.80;;
870;SDS011;422;51.280;7.236;2023-07-31T12:38:10;4.37;;;2.63;;
870;SDS011;422;51.280;7.236;2023-07-31T12:40:38;4.20;;;3.47;;
870;SDS011;422;51.280;7.236;2023-07-31T12:43:08;3.67;;;3.07;;
870;SDS011;422;51.280;7.236;2023-07-31T12:45:35;4.90;;;3.77;;
870;SDS011;422;51.280;7.236;2023-07-31T12:48:02;4.37;;;3.33;;
870;SDS011;422;51.280;7.236;2023-07-31T12:50:30;6.63;;;3.30;;
870;SDS011;422;51.280;7.236;2023-07-31T12:52:57;5.10;;;3.60;;
870;SDS011;422;51.280;7.236;2023-07-31T12:55:24;3.87;;;3.10;;
870;SDS011;422;51.280;7.236;2023-07-31T12:57:52;4.60;;;3.33;;
870;SDS011;422;51.280;7.236;2023-07-31T13:00:21;3.43;;;2.83;;
870;SDS011;422;51.280;7.236;2023-07-31T13:02:48;4.60;;;3.20;;
870;SDS011;422;51.280;7.236;2023-07-31T13:05:16;3.97;;;3.43;;
870;SDS011;422;51.280;7.236;2023-07-31T13:07:45;4.50;;;3.60;;
870;SDS011;422;51.280;7.236;2023-07-31T13:10:12;4.60;;;3.63;;
870;SDS011;422;51.280;7.236;2023-07-31T13:12:39;4.43;;;3.83;;
870;SDS011;422;51.280;7.236;2023-07-31T13:15:07;5.80;;;4.00;;
870;SDS011;422;51.280;7.236;2023-07-31T13:17:36;6.20;;;4.40;;
870;SDS011;422;51.280;7.236;2023-07-31T13:20:03;5.03;;;4.07;;
870;SDS011;422;51.280;7.236;2023-07-31T13:22:31;5.03;;;4.17;;
870;SDS011;422;51.280;7.236;2023-07-31T13:24:58;4.07;;;3.50;;
870;SDS011;422;51.280;7.236;2023-07-31T13:27:26;4.93;;;4.07;;
870;SDS011;422;51.280;7.236;2023-07-31T13:29:53;4.30;;;3.50;;
870;SDS011;422;51.280;7.236;2023-07-31T13:32:20;4.77;;;4.27;;
870;SDS011;422;51.280;7.236;2023-07-31T13:34:49;5.07;;;4.20;;
870;SDS011;422;51.280;7.236;2023-07-31T13:37:16;5.00;;;4.10;;
870;SDS011;422;51.280;7.236;2023-07-31T13:39:44;6.53;;;4.87;;
870;SDS011;422;51.280;7.236;2023-07-31T13:42:11;5.60;;;4.40;;
870;SDS011;422;51.280;7.236;2023-07-31T13:44:38;5.07;;;4.17;;
870;SDS011;422;51.280;7.236;2023-07-31T13:47:06;6.00;;;5.40;;
870;SDS011;422;51.280;7.236;2023-07-31T13:49:34;7.17;;;5.40;;
870;SDS011;422;51.280;7.236;2023-07-31T13:52:05;8.40;;;4.43;;
870;SDS011;422;51.280;7.236;2023-07-31T13:54:33;5.50;;;5.00;;
870;SDS011;422;51.280;7.236;2023-07-31T13:57:00;7.63;;;4.87;;
870;SDS011;422;51.280;7.236;2023-07-31T13:59:27;6.47;;;5.13;;
870;SDS011;422;51.280;7.236;2023-07-31T14:01:54;5.87;;;4.83;;
870;SDS011;422;51.280;7.236;2023-07-31T14:04:22;7.07;;;5.40;;
870;SDS011;422;51.280;7.236;2023-07-31T14:06:49;5.33;;;4.47;;
870;SDS011;422;51.280;7.236;2023-07-31T14:09:17;7.40;;;5.37;;
870;SDS011;422;51.280;7.236;2023-07-31T14:11:45;6.40;;;4.83;;
870;SDS011;422;51.280;7.236;2023-07-31T14:14:12;7.37;;;4.80;;
870;SDS011;422;51.280;7.236;2023-07-31T14:16:39;5.40;;;4.27;;
870;SDS011;422;51.280;7.236;2023-07-31T14:19:07;5.80;;;5.20;;
870;SDS011;422;51.280;7.236;2023-07-31T14:21:34;6.67;;;5.10;;
870;SDS011;422;51.280;7.236;2023-07-31T14:24:01;6.63;;;4.80;;
870;SDS011;422;51.280;7.236;2023-07-31T14:26:30;5.53;;;4.93;;
870;SDS011;422;51.280;7.236;2023-07-31T14:28:57;5.73;;;4.47;;
870;SDS011;422;51.280;7.236;2023-07-31T14:31:24;5.23;;;4.43;;
870;SDS011;422;51.280;7.236;2023-07-31T14:33:52;6.03;;;4.40;;
870;SDS011;422;51.280;7.236;2023-07-31T14:36:19;7.70;;;5.17;;
870;SDS011;422;51.280;7.236;2023-07-31T14:38:46;6.53;;;4.27;;
870;SDS011;422;51.280;7.236;2023-07-31T14:41:13;6.77;;;4.17;;
870;SDS011;422;51.280;7.236;2023-07-31T14:43:42;5.47;;;4.47;;
870;SDS011;422;51.280;7.236;2023-07-31T14:46:09;6.10;;;4.40;;
870;SDS011;422;51.280;7.236;2023-07-31T14:48:36;9.73;;;4.90;;
870;SDS011;422;51.280;7.236;2023-07-31T14:51:04;5.43;;;4.33;;
870;SDS011;422;51.280;7.236;2023-07-31T14:53:31;5.80;;;4.40;;
870;SDS011;422;51.280;7.236;2023-07-31T14:55:58;7.67;;;4.83;;
870;SDS011;422;51.280;7.236;2023-07-31T14:58:26;7.07;;;4.57;;
870;SDS011;422;51.280;7.236;2023-07-31T15:00:54;4.90;;;3.80;;
870;SDS011;422;51.280;7.236;2023-07-31T15:03:21;5.57;;;4.77;;
870;SDS011;422;51.280;7.236;2023-07-31T15:05:50;4.87;;;4.00;;
870;SDS011;422;51.280;7.236;2023-07-31T15:08:17;6.23;;;4.70;;
870;SDS011;422;51.280;7.236;2023-07-31T15:10:46;6.10;;;4.93;;
870;SDS011;422;51.280;7.236;2023-07-31T15:13:13;6.80;;;4.43;;
870;SDS011;422;51.280;7.236;2023-07-31T15:15:41;5.63;;;3.83;;
870;SDS011;422;51.280;7.236;2023-07-31T15:18:09;5.33;;;3.90;;
870;SDS011;422;51.280;7.236;2023-07-31T15:20:36;5.90;;;4.23;;
870;SDS011;422;51.280;7.236;2023-07-31T15:23:03;5.80;;;3.83;;
870;SDS011;422;51.280;7.236;2023-07-31T15:25:33;5.67;;;4.53;;
870;SDS011;422;51.280;7.236;2023-07-31T15:28:01;5.87;;;4.60;;
870;SDS011;422;51.280;7.236;2023-07-31T15:30:28;6.60;;;4.60;;
870;SDS011;422;51.280;7.236;2023-07-31T15:32:56;4.67;;;4.17;;
870;SDS011;422;51.280;7.236;2023-07-31T15:35:27;4.90;;;4.40;;
870;SDS011;422;51.280;7.236;2023-07-31T15:37:54;5.50;;;4.27;;
870;SDS011;422;51.280;7.236;2023-07-31T15:40:21;5.60;;;4.67;;
870;SDS011;422;51.280;7.236;2023-07-31T15:42:48;7.50;;;5.43;;
870;SDS011;422;51.280;7.236;2023-07-31T15:45:15;7.33;;;6.23;;